sensor_id;sensor_type;location;lat;lon;timestamp;pressure;altitude;pressure_sealevel;temperature;humidity
52469;BME280;38381;53.688;10.776;2022-12-07T00:03:02;100832.06;;;1.18;99.20
52469;BME280;38381;53.688;10.776;2022-12-07T00:08:03;100817.75;;;1.22;99.49
52469;BME280;38381;53.688;10.776;2022-12-07T00:13:03;100809.78;;;1.33;98.78
52469;BME280;38381;53.688;10.776;2022-12-07T00:18:04;100802.38;;;1.59;98.70
52469;BME280;38381;53.688;10.776;2022-12-07T00:23:04;100796.25;;;1.55;98.23
52469;BME280;38381;53.688;10.776;2022-12-07T00:28:04;100786.34;;;1.63;98.78
52469;BME280;38381;53.688;10.776;2022-12-07T00:33:05;100776.91;;;1.81;98.08
52469;BME280;38381;53.688;10.776;2022-12-07T00:38:05;100766.34;;;1.74;98.86
52469;BME280;38381;53.688;10.776;2022-12-07T00:43:06;100765.50;;;1.73;98.46
52469;BME280;38381;53.688;10.776;2022-12-07T00:48:06;100763.94;;;1.77;98.37
52469;BME280;38381;53.688;10.776;2022-12-07T00:53:06;100751.59;;;1.88;98.08
52469;BME280;38381;53.688;10.776;2022-12-07T00:58:07;100750.66;;;1.86;97.55
52469;BME280;38381;53.688;10.776;2022-12-07T01:03:09;100738.56;;;1.81;98.77
52469;BME280;38381;53.688;10.776;2022-12-07T01:08:10;100742.44;;;1.93;98.94
52469;BME280;38381;53.688;10.776;2022-12-07T01:13:10;100728.03;;;1.95;98.83
52469;BME280;38381;53.688;10.776;2022-12-07T01:18:11;100739.56;;;2.06;98.75
52469;BME280;38381;53.688;10.776;2022-12-07T01:23:11;100732.81;;;2.08;99.05
52469;BME280;38381;53.688;10.776;2022-12-07T01:28:12;100728.03;;;1.95;100.00
52469;BME280;38381;53.688;10.776;2022-12-07T01:33:12;100724.22;;;2.06;99.55
52469;BME280;38381;53.688;10.776;2022-12-07T01:38:12;100724.47;;;2.12;99.52
52469;BME280;38381;53.688;10.776;2022-12-07T01:43:16;100719.72;;;2.21;99.78
52469;BME280;38381;53.688;10.776;2022-12-07T01:48:22;100713.00;;;2.25;99.93
52469;BME280;38381;53.688;10.776;2022-12-07T01:53:25;100714.72;;;2.25;99.91
52469;BME280;38381;53.688;10.776;2022-12-07T01:58:26;100710.91;;;2.36;99.52
52469;BME280;38381;53.688;10.776;2022-12-07T02:03:54;100704.31;;;2.42;98.83
52469;BME280;38381;53.688;10.776;2022-12-07T02:08:55;100698.50;;;2.47;99.20
52469;BME280;38381;53.688;10.776;2022-12-07T02:13:56;100692.44;;;2.45;98.83
52469;BME280;38381;53.688;10.776;2022-12-07T02:29:58;100670.63;;;2.54;98.72
52469;BME280;38381;53.688;10.776;2022-12-07T02:35:11;100676.56;;;2.53;98.81
52469;BME280;38381;53.688;10.776;2022-12-07T02:40:27;100666.31;;;2.53;98.90
52469;BME280;38381;53.688;10.776;2022-12-07T02:45:30;100661.81;;;2.70;99.00
52469;BME280;38381;53.688;10.776;2022-12-07T02:50:31;100665.84;;;2.64;98.87
52469;BME280;38381;53.688;10.776;2022-12-07T02:55:37;100657.09;;;2.81;98.48
52469;BME280;38381;53.688;10.776;2022-12-07T03:00:52;100655.28;;;2.78;98.04
52469;BME280;38381;53.688;10.776;2022-12-07T03:06:16;100658.97;;;2.85;97.87
52469;BME280;38381;53.688;10.776;2022-12-07T03:11:25;100658.97;;;2.85;97.66
52469;BME280;38381;53.688;10.776;2022-12-07T03:16:35;100643.88;;;2.70;97.27
52469;BME280;38381;53.688;10.776;2022-12-07T03:21:44;100636.63;;;2.81;97.17
52469;BME280;38381;53.688;10.776;2022-12-07T03:26:52;100635.47;;;2.73;96.88
52469;BME280;38381;53.688;10.776;2022-12-07T03:32:23;100638.13;;;2.76;96.54
52469;BME280;38381;53.688;10.776;2022-12-07T03:37:37;100640.63;;;2.74;96.31
52469;BME280;38381;53.688;10.776;2022-12-07T03:42:38;100645.00;;;2.77;96.28
52469;BME280;38381;53.688;10.776;2022-12-07T03:52:58;100641.31;;;2.69;96.26
52469;BME280;38381;53.688;10.776;2022-12-07T03:58:04;100637.22;;;2.51;96.37
52469;BME280;38381;53.688;10.776;2022-12-07T04:03:06;100638.63;;;2.66;96.10
52469;BME280;38381;53.688;10.776;2022-12-07T04:08:06;100639.22;;;2.58;95.17
52469;BME280;38381;53.688;10.776;2022-12-07T04:13:07;100648.16;;;2.70;94.21
52469;BME280;38381;53.688;10.776;2022-12-07T04:18:07;100643.63;;;2.63;94.01
52469;BME280;38381;53.688;10.776;2022-12-07T04:23:07;100655.84;;;2.47;94.30
52469;BME280;38381;53.688;10.776;2022-12-07T04:28:08;100648.94;;;2.45;94.70
52469;BME280;38381;53.688;10.776;2022-12-07T04:33:08;100650.81;;;2.49;93.83
52469;BME280;38381;53.688;10.776;2022-12-07T04:38:09;100657.63;;;2.48;94.06
52469;BME280;38381;53.688;10.776;2022-12-07T04:43:09;100650.50;;;2.41;93.36
52469;BME280;38381;53.688;10.776;2022-12-07T04:48:09;100660.75;;;2.18;92.98
52469;BME280;38381;53.688;10.776;2022-12-07T04:53:10;100668.03;;;2.30;93.17
52469;BME280;38381;53.688;10.776;2022-12-07T04:58:12;100660.88;;;2.21;92.16
52469;BME280;38381;53.688;10.776;2022-12-07T05:03:12;100673.59;;;2.20;91.94
52469;BME280;38381;53.688;10.776;2022-12-07T05:08:13;100680.56;;;2.24;92.09
52469;BME280;38381;53.688;10.776;2022-12-07T05:13:16;100679.47;;;2.17;92.27
52469;BME280;38381;53.688;10.776;2022-12-07T05:18:17;100682.81;;;2.16;91.85
52469;BME280;38381;53.688;10.776;2022-12-07T05:23:18;100682.88;;;1.95;90.72
52469;BME280;38381;53.688;10.776;2022-12-07T05:28:18;100677.13;;;2.01;91.39
52469;BME280;38381;53.688;10.776;2022-12-07T05:33:18;100685.19;;;1.89;92.02
52469;BME280;38381;53.688;10.776;2022-12-07T05:38:19;100684.84;;;1.81;91.77
52469;BME280;38381;53.688;10.776;2022-12-07T05:43:19;100683.00;;;1.77;92.26
52469;BME280;38381;53.688;10.776;2022-12-07T05:48:20;100686.91;;;1.69;92.08
52469;BME280;38381;53.688;10.776;2022-12-07T05:53:20;100685.47;;;1.76;91.64
52469;BME280;38381;53.688;10.776;2022-12-07T05:58:21;100680.38;;;1.55;91.67
52469;BME280;38381;53.688;10.776;2022-12-07T06:03:40;100680.94;;;1.48;92.31
52469;BME280;38381;53.688;10.776;2022-12-07T06:08:40;100679.91;;;1.44;92.04
52469;BME280;38381;53.688;10.776;2022-12-07T06:13:40;100685.63;;;1.38;92.72
52469;BME280;38381;53.688;10.776;2022-12-07T06:18:41;100697.47;;;1.36;92.41
52469;BME280;38381;53.688;10.776;2022-12-07T06:23:41;100700.34;;;1.23;93.17
52469;BME280;38381;53.688;10.776;2022-12-07T06:28:42;100702.06;;;1.24;93.53
52469;BME280;38381;53.688;10.776;2022-12-07T06:33:42;100699.69;;;1.29;93.57
52469;BME280;38381;53.688;10.776;2022-12-07T06:38:43;100692.72;;;1.25;92.87
52469;BME280;38381;53.688;10.776;2022-12-07T06:43:43;100695.75;;;1.16;92.91
52469;BME280;38381;53.688;10.776;2022-12-07T06:48:44;100694.97;;;1.17;92.99
52469;BME280;38381;53.688;10.776;2022-12-07T06:53:44;100697.25;;;1.11;92.98
52469;BME280;38381;53.688;10.776;2022-12-07T06:58:45;100707.50;;;1.12;94.09
52469;BME280;38381;53.688;10.776;2022-12-07T07:03:46;100707.59;;;1.14;94.08
52469;BME280;38381;53.688;10.776;2022-12-07T07:08:46;100702.41;;;1.12;93.88
52469;BME280;38381;53.688;10.776;2022-12-07T07:13:47;100709.75;;;1.05;94.96
52469;BME280;38381;53.688;10.776;2022-12-07T07:18:47;100706.25;;;1.03;94.85
52469;BME280;38381;53.688;10.776;2022-12-07T07:23:48;100699.66;;;1.08;95.07
52469;BME280;38381;53.688;10.776;2022-12-07T07:28:48;100696.97;;;1.05;95.24
52469;BME280;38381;53.688;10.776;2022-12-07T07:33:49;100693.22;;;0.96;95.35
52469;BME280;38381;53.688;10.776;2022-12-07T07:38:49;100691.19;;;0.89;94.72
52469;BME280;38381;53.688;10.776;2022-12-07T07:43:50;100699.59;;;0.87;95.09
52469;BME280;38381;53.688;10.776;2022-12-07T07:48:50;100705.75;;;0.92;94.40
52469;BME280;38381;53.688;10.776;2022-12-07T07:53:50;100701.94;;;0.82;95.38
52469;BME280;38381;53.688;10.776;2022-12-07T07:58:52;100707.91;;;0.83;95.14
52469;BME280;38381;53.688;10.776;2022-12-07T08:03:52;100699.13;;;0.95;95.11
52469;BME280;38381;53.688;10.776;2022-12-07T08:08:53;100704.69;;;1.06;94.13
52469;BME280;38381;53.688;10.776;2022-12-07T08:13:53;100712.56;;;1.11;93.76
52469;BME280;38381;53.688;10.776;2022-12-07T08:18:53;100708.53;;;1.16;93.99
52469;BME280;38381;53.688;10.776;2022-12-07T08:23:54;100704.63;;;1.24;94.26
52469;BME280;38381;53.688;10.776;2022-12-07T08:28:54;100699.63;;;1.47;93.72
52469;BME280;38381;53.688;10.776;2022-12-07T08:33:55;100708.47;;;1.55;92.96
52469;BME280;38381;53.688;10.776;2022-12-07T08:38:56;100690.84;;;1.61;91.85
52469;BME280;38381;53.688;10.776;2022-12-07T08:43:56;100695.84;;;1.58;91.29
52469;BME280;38381;53.688;10.776;2022-12-07T08:54:12;100698.41;;;1.58;92.23
52469;BME280;38381;53.688;10.776;2022-12-07T08:59:15;100696.09;;;1.64;92.64
52469;BME280;38381;53.688;10.776;2022-12-07T09:04:17;100697.81;;;1.65;92.93
52469;BME280;38381;53.688;10.776;2022-12-07T09:09:18;100689.91;;;1.80;91.85
52469;BME280;38381;53.688;10.776;2022-12-07T09:14:19;100700.28;;;1.83;91.71
52469;BME280;38381;53.688;10.776;2022-12-07T09:19:19;100698.53;;;2.03;91.28
52469;BME280;38381;53.688;10.776;2022-12-07T09:24:20;100690.25;;;2.10;91.09
52469;BME280;38381;53.688;10.776;2022-12-07T09:29:20;100690.34;;;2.12;90.44
52469;BME280;38381;53.688;10.776;2022-12-07T09:34:21;100696.63;;;2.20;89.79
52469;BME280;38381;53.688;10.776;2022-12-07T09:39:21;100693.81;;;2.14;89.75
52469;BME280;38381;53.688;10.776;2022-12-07T09:44:24;100696.78;;;2.25;88.56
52469;BME280;38381;53.688;10.776;2022-12-07T09:49:28;100701.22;;;2.29;87.53
52469;BME280;38381;53.688;10.776;2022-12-07T09:54:31;100704.88;;;2.35;87.11
52469;BME280;38381;53.688;10.776;2022-12-07T09:59:34;100698.13;;;2.37;87.41
52469;BME280;38381;53.688;10.776;2022-12-07T10:04:37;100705.78;;;2.36;86.53
52469;BME280;38381;53.688;10.776;2022-12-07T10:09:37;100698.28;;;2.40;86.69
52469;BME280;38381;53.688;10.776;2022-12-07T10:20:22;100695.00;;;2.45;85.63
52469;BME280;38381;53.688;10.776;2022-12-07T10:25:30;100692.69;;;2.51;84.92
52469;BME280;38381;53.688;10.776;2022-12-07T10:30:33;100693.22;;;2.65;84.36
52469;BME280;38381;53.688;10.776;2022-12-07T10:35:46;100689.94;;;2.69;84.70
52469;BME280;38381;53.688;10.776;2022-12-07T10:40:46;100689.41;;;2.77;83.97
52469;BME280;38381;53.688;10.776;2022-12-07T10:50:56;100685.69;;;2.69;84.65
52469;BME280;38381;53.688;10.776;2022-12-07T11:22:59;100666.75;;;2.88;82.94
52469;BME280;38381;53.688;10.776;2022-12-07T11:33:29;100649.81;;;2.92;81.93
52469;BME280;38381;53.688;10.776;2022-12-07T11:38:43;100656.22;;;3.05;80.65
52469;BME280;38381;53.688;10.776;2022-12-07T11:44:07;100650.72;;;2.94;79.26
52469;BME280;38381;53.688;10.776;2022-12-07T11:49:27;100642.28;;;2.96;79.02
52469;BME280;38381;53.688;10.776;2022-12-07T11:54:40;100640.75;;;3.01;78.74
52469;BME280;38381;53.688;10.776;2022-12-07T11:59:52;100630.81;;;3.11;79.11
52469;BME280;38381;53.688;10.776;2022-12-07T12:05:05;100629.53;;;2.98;79.15
52469;BME280;38381;53.688;10.776;2022-12-07T12:10:24;100622.56;;;2.94;78.86
52469;BME280;38381;53.688;10.776;2022-12-07T12:20:50;100632.56;;;3.12;77.21
52469;BME280;38381;53.688;10.776;2022-12-07T12:25:54;100631.75;;;3.13;77.08
52469;BME280;38381;53.688;10.776;2022-12-07T12:46:38;100613.75;;;3.11;73.88
52469;BME280;38381;53.688;10.776;2022-12-07T12:51:57;100605.91;;;3.07;73.21
52469;BME280;38381;53.688;10.776;2022-12-07T13:02:27;100616.78;;;2.99;72.00
52469;BME280;38381;53.688;10.776;2022-12-07T13:12:55;100609.59;;;2.89;71.21
52469;BME280;38381;53.688;10.776;2022-12-07T13:17:59;100607.13;;;2.92;70.51
52469;BME280;38381;53.688;10.776;2022-12-07T13:23:01;100616.28;;;2.86;71.22
52469;BME280;38381;53.688;10.776;2022-12-07T13:28:10;100618.28;;;2.70;70.78
52469;BME280;38381;53.688;10.776;2022-12-07T13:33:14;100615.69;;;2.69;71.39
52469;BME280;38381;53.688;10.776;2022-12-07T13:38:27;100621.53;;;2.65;70.73
52469;BME280;38381;53.688;10.776;2022-12-07T13:43:28;100620.75;;;2.67;70.58
52469;BME280;38381;53.688;10.776;2022-12-07T13:48:49;100612.94;;;2.64;70.13
52469;BME280;38381;53.688;10.776;2022-12-07T13:53:55;100618.97;;;2.65;69.65
52469;BME280;38381;53.688;10.776;2022-12-07T13:58:56;100623.19;;;2.64;69.63
52469;BME280;38381;53.688;10.776;2022-12-07T14:04:17;100626.91;;;2.48;68.94
52469;BME280;38381;53.688;10.776;2022-12-07T14:09:27;100629.47;;;2.48;69.04
52469;BME280;38381;53.688;10.776;2022-12-07T14:14:30;100625.69;;;2.38;69.45
52469;BME280;38381;53.688;10.776;2022-12-07T14:19:51;100633.81;;;2.28;68.80
52469;BME280;38381;53.688;10.776;2022-12-07T14:25:20;100629.47;;;2.26;68.78
52469;BME280;38381;53.688;10.776;2022-12-07T14:30:23;100620.63;;;2.17;69.65
52469;BME280;38381;53.688;10.776;2022-12-07T14:35:24;100638.31;;;2.11;68.99
52469;BME280;38381;53.688;10.776;2022-12-07T14:40:27;100632.25;;;2.09;68.81
52469;BME280;38381;53.688;10.776;2022-12-07T14:45:28;100636.22;;;2.01;69.15
52469;BME280;38381;53.688;10.776;2022-12-07T14:50:29;100636.81;;;1.95;69.27
52469;BME280;38381;53.688;10.776;2022-12-07T14:55:30;100639.91;;;1.87;69.58
52469;BME280;38381;53.688;10.776;2022-12-07T15:00:31;100638.31;;;1.90;69.27
52469;BME280;38381;53.688;10.776;2022-12-07T15:05:32;100639.97;;;1.67;70.06
52469;BME280;38381;53.688;10.776;2022-12-07T15:10:33;100634.09;;;1.70;70.07
52469;BME280;38381;53.688;10.776;2022-12-07T15:15:34;100630.09;;;1.55;70.70
52469;BME280;38381;53.688;10.776;2022-12-07T15:20:34;100639.47;;;1.55;70.06
52469;BME280;38381;53.688;10.776;2022-12-07T15:25:35;100639.22;;;1.49;70.47
52469;BME280;38381;53.688;10.776;2022-12-07T15:30:40;100636.34;;;1.41;70.27
52469;BME280;38381;53.688;10.776;2022-12-07T15:35:44;100635.97;;;1.32;71.02
52469;BME280;38381;53.688;10.776;2022-12-07T15:40:48;100649.25;;;1.23;71.03
52469;BME280;38381;53.688;10.776;2022-12-07T15:45:49;100645.59;;;1.18;70.91
52469;BME280;38381;53.688;10.776;2022-12-07T15:50:50;100647.47;;;1.22;70.77
52469;BME280;38381;53.688;10.776;2022-12-07T15:55:50;100644.66;;;1.16;71.38
52469;BME280;38381;53.688;10.776;2022-12-07T16:00:51;100638.16;;;1.03;71.90
52469;BME280;38381;53.688;10.776;2022-12-07T16:05:51;100643.19;;;1.02;72.17
52469;BME280;38381;53.688;10.776;2022-12-07T16:10:53;100644.91;;;1.01;72.65
52469;BME280;38381;53.688;10.776;2022-12-07T16:15:53;100647.03;;;0.92;73.11
52469;BME280;38381;53.688;10.776;2022-12-07T16:20:53;100641.72;;;0.87;73.01
52469;BME280;38381;53.688;10.776;2022-12-07T16:25:54;100643.53;;;0.90;72.56
52469;BME280;38381;53.688;10.776;2022-12-07T16:31:06;100647.50;;;0.83;72.95
52469;BME280;38381;53.688;10.776;2022-12-07T16:36:09;100646.91;;;0.69;73.96
52469;BME280;38381;53.688;10.776;2022-12-07T16:41:10;100651.34;;;0.73;72.60
52469;BME280;38381;53.688;10.776;2022-12-07T16:46:10;100642.88;;;0.74;72.59
52469;BME280;38381;53.688;10.776;2022-12-07T16:51:13;100644.69;;;0.77;73.24
52469;BME280;38381;53.688;10.776;2022-12-07T16:56:14;100648.91;;;0.57;73.69
52469;BME280;38381;53.688;10.776;2022-12-07T17:01:20;100646.97;;;0.51;74.54
52469;BME280;38381;53.688;10.776;2022-12-07T17:06:24;100648.22;;;0.42;75.00
52469;BME280;38381;53.688;10.776;2022-12-07T17:11:27;100645.59;;;0.40;75.84
52469;BME280;38381;53.688;10.776;2022-12-07T17:16:28;100645.28;;;0.52;74.84
52469;BME280;38381;53.688;10.776;2022-12-07T17:21:29;100639.19;;;0.30;75.88
52469;BME280;38381;53.688;10.776;2022-12-07T17:26:30;100629.06;;;0.32;75.49
52469;BME280;38381;53.688;10.776;2022-12-07T17:31:31;100629.34;;;0.38;76.53
52469;BME280;38381;53.688;10.776;2022-12-07T17:36:32;100637.31;;;0.26;75.69
52469;BME280;38381;53.688;10.776;2022-12-07T17:41:33;100626.72;;;0.36;75.51
52469;BME280;38381;53.688;10.776;2022-12-07T17:46:52;100627.06;;;0.25;75.75
52469;BME280;38381;53.688;10.776;2022-12-07T17:52:01;100628.00;;;0.27;75.85
52469;BME280;38381;53.688;10.776;2022-12-07T17:57:20;100633.38;;;0.33;75.21
52469;BME280;38381;53.688;10.776;2022-12-07T18:02:21;100626.78;;;0.38;74.69
52469;BME280;38381;53.688;10.776;2022-12-07T18:07:21;100622.00;;;0.26;75.61
52469;BME280;38381;53.688;10.776;2022-12-07T18:12:22;100611.69;;;0.23;75.59
52469;BME280;38381;53.688;10.776;2022-12-07T18:17:22;100612.53;;;0.24;75.96
52469;BME280;38381;53.688;10.776;2022-12-07T18:22:23;100614.22;;;0.23;75.13
52469;BME280;38381;53.688;10.776;2022-12-07T18:27:24;100613.94;;;0.17;76.03
52469;BME280;38381;53.688;10.776;2022-12-07T18:32:24;100610.53;;;0.16;76.48
52469;BME280;38381;53.688;10.776;2022-12-07T18:37:25;100611.53;;;0.20;76.11
52469;BME280;38381;53.688;10.776;2022-12-07T18:42:29;100606.13;;;0.14;76.62
52469;BME280;38381;53.688;10.776;2022-12-07T18:47:29;100602.16;;;0.19;76.19
52469;BME280;38381;53.688;10.776;2022-12-07T18:52:30;100600.91;;;0.11;76.40
52469;BME280;38381;53.688;10.776;2022-12-07T18:57:31;100600.56;;;0.03;77.21
52469;BME280;38381;53.688;10.776;2022-12-07T19:02:32;100601.75;;;-0.08;77.68
52469;BME280;38381;53.688;10.776;2022-12-07T19:07:33;100602.91;;;-0.02;77.52
52469;BME280;38381;53.688;10.776;2022-12-07T19:12:34;100609.69;;;-0.02;77.48
52469;BME280;38381;53.688;10.776;2022-12-07T19:17:35;100607.25;;;0.01;77.37
52469;BME280;38381;53.688;10.776;2022-12-07T19:22:35;100617.69;;;-0.12;77.36
52469;BME280;38381;53.688;10.776;2022-12-07T19:27:35;100604.88;;;-0.14;77.12
52469;BME280;38381;53.688;10.776;2022-12-07T19:32:36;100597.22;;;-0.14;77.78
52469;BME280;38381;53.688;10.776;2022-12-07T19:37:37;100597.03;;;-0.18;76.78
52469;BME280;38381;53.688;10.776;2022-12-07T19:42:37;100603.13;;;-0.15;76.14
52469;BME280;38381;53.688;10.776;2022-12-07T19:47:37;100592.91;;;-0.15;76.82
52469;BME280;38381;53.688;10.776;2022-12-07T19:52:38;100594.81;;;-0.11;76.60
52469;BME280;38381;53.688;10.776;2022-12-07T19:57:38;100598.03;;;-0.15;76.87
52469;BME280;38381;53.688;10.776;2022-12-07T20:02:39;100589.28;;;-0.20;76.95
52469;BME280;38381;53.688;10.776;2022-12-07T20:07:39;100584.31;;;-0.17;77.49
52469;BME280;38381;53.688;10.776;2022-12-07T20:12:40;100577.19;;;-0.06;76.18
52469;BME280;38381;53.688;10.776;2022-12-07T20:18:01;100567.22;;;-0.02;76.25
52469;BME280;38381;53.688;10.776;2022-12-07T20:23:01;100562.50;;;-0.12;76.30
52469;BME280;38381;53.688;10.776;2022-12-07T20:28:02;100559.19;;;-0.09;76.66
52469;BME280;38381;53.688;10.776;2022-12-07T20:33:02;100562.22;;;-0.18;77.10
52469;BME280;38381;53.688;10.776;2022-12-07T20:38:03;100558.56;;;-0.23;77.15
52469;BME280;38381;53.688;10.776;2022-12-07T20:43:03;100556.47;;;-0.32;77.76
52469;BME280;38381;53.688;10.776;2022-12-07T20:48:04;100549.56;;;-0.34;77.80
52469;BME280;38381;53.688;10.776;2022-12-07T20:53:04;100548.41;;;-0.41;79.11
52469;BME280;38381;53.688;10.776;2022-12-07T20:58:05;100550.78;;;-0.44;79.40
52469;BME280;38381;53.688;10.776;2022-12-07T21:03:05;100546.06;;;-0.54;80.64
52469;BME280;38381;53.688;10.776;2022-12-07T21:08:06;100549.97;;;-0.79;81.06
52469;BME280;38381;53.688;10.776;2022-12-07T21:13:06;100541.09;;;-0.87;81.66
52469;BME280;38381;53.688;10.776;2022-12-07T21:18:06;100538.09;;;-0.96;81.58
52469;BME280;38381;53.688;10.776;2022-12-07T21:23:07;100529.56;;;-0.97;81.90
52469;BME280;38381;53.688;10.776;2022-12-07T21:28:07;100536.03;;;-1.04;81.53
52469;BME280;38381;53.688;10.776;2022-12-07T21:33:07;100525.00;;;-1.04;82.08
52469;BME280;38381;53.688;10.776;2022-12-07T21:38:08;100514.25;;;-0.98;81.93
52469;BME280;38381;53.688;10.776;2022-12-07T21:43:08;100504.72;;;-1.03;82.31
52469;BME280;38381;53.688;10.776;2022-12-07T21:48:09;100505.59;;;-1.02;82.14
52469;BME280;38381;53.688;10.776;2022-12-07T21:53:09;100503.03;;;-1.02;82.52
52469;BME280;38381;53.688;10.776;2022-12-07T21:58:10;100499.47;;;-1.06;82.48
52469;BME280;38381;53.688;10.776;2022-12-07T22:03:10;100495.59;;;-1.15;82.67
52469;BME280;38381;53.688;10.776;2022-12-07T22:08:11;100493.00;;;-1.17;82.59
52469;BME280;38381;53.688;10.776;2022-12-07T22:13:11;100488.09;;;-1.30;83.71
52469;BME280;38381;53.688;10.776;2022-12-07T22:18:12;100489.69;;;-1.32;83.95
52469;BME280;38381;53.688;10.776;2022-12-07T22:23:12;100478.28;;;-1.23;84.10
52469;BME280;38381;53.688;10.776;2022-12-07T22:28:12;100474.28;;;-1.35;84.60
52469;BME280;38381;53.688;10.776;2022-12-07T22:33:13;100469.88;;;-1.38;85.11
52469;BME280;38381;53.688;10.776;2022-12-07T22:38:16;100463.47;;;-1.31;85.58
52469;BME280;38381;53.688;10.776;2022-12-07T22:43:16;100463.47;;;-1.31;86.27
52469;BME280;38381;53.688;10.776;2022-12-07T22:48:17;100455.34;;;-1.40;86.67
52469;BME280;38381;53.688;10.776;2022-12-07T22:53:22;100445.19;;;-1.40;88.01
52469;BME280;38381;53.688;10.776;2022-12-07T22:58:23;100442.72;;;-1.39;88.35
52469;BME280;38381;53.688;10.776;2022-12-07T23:03:23;100433.78;;;-1.31;88.62
52469;BME280;38381;53.688;10.776;2022-12-07T23:08:23;100426.59;;;-1.22;89.24
52469;BME280;38381;53.688;10.776;2022-12-07T23:13:24;100419.47;;;-1.29;90.81
52469;BME280;38381;53.688;10.776;2022-12-07T23:18:36;100411.19;;;-1.25;91.52
52469;BME280;38381;53.688;10.776;2022-12-07T23:23:37;100401.59;;;-1.12;92.02
52469;BME280;38381;53.688;10.776;2022-12-07T23:28:38;100403.84;;;-1.18;92.40
52469;BME280;38381;53.688;10.776;2022-12-07T23:33:40;100393.75;;;-1.17;93.09
52469;BME280;38381;53.688;10.776;2022-12-07T23:38:42;100393.88;;;-1.14;94.05
52469;BME280;38381;53.688;10.776;2022-12-07T23:43:43;100383.06;;;-1.10;94.92
52469;BME280;38381;53.688;10.776;2022-12-07T23:48:44;100374.63;;;-1.09;95.62
52469;BME280;38381;53.688;10.776;2022-12-07T23:53:48;100366.38;;;-1.03;95.77
52469;BME280;38381;53.688;10.776;2022-12-07T23:58:49;100362.31;;;-0.99;96.37
